CST,Max TemperatureF,Mean TemperatureF,Min TemperatureF,Max Dew PointF,MeanDew PointF,Min DewpointF,Max Humidity, Mean Humidity, Min Humidity, Max Sea Level PressureIn, Mean Sea Level PressureIn, Min Sea Level PressureIn, Max VisibilityMiles, Mean VisibilityMiles, Min VisibilityMiles, Max Wind SpeedMPH, Mean Wind SpeedMPH, Max Gust SpeedMPH,PrecipitationIn, CloudCover, Events, WindDirDegrees
2011-12-1,48,36,23,32,27,21,89,71,53,30.39,30.33,30.25,10,9,6,9,2,13,0.00,0,,136
2011-12-2,53,41,29,37,33,28,92,71,50,30.46,30.42,30.34,10,9,7,9,2,10,0.00,2,,111
2011-12-3,62,53,44,38,34,31,71,52,32,30.40,30.29,30.13,10,10,10,15,7,22,T,2,,157
2011-12-4,57,50,43,52,46,34,100,70,40,30.18,30.15,30.12,10,4,1,17,7,25,2.05,8,Rain,180
2011-12-5,43,41,39,41,38,37,96,91,86,30.18,30.14,30.08,10,7,2,17,10,23,1.35,8,Rain,356
2011-12-6,40,39,37,38,35,32,92,89,85,30.19,30.15,30.12,10,9,3,14,8,18,0.00,8,,9
2011-12-7,41,34,27,32,28,24,92,76,60,30.27,30.14,30.05,10,10,8,16,8,21,0.00,6,,324
2011-12-8,44,35,25,31,26,23,100,75,49,30.35,30.28,30.25,10,9,4,16,4,20,0.00,0,,197
2011-12-9,45,36,27,32,28,21,85,72,58,30.50,30.34,30.24,10,10,6,14,5,20,0.00,4,,330
2011-12-10,36,28,20,18,15,9,81,62,42,30.65,30.58,30.52,10,10,10,10,3,14,0.00,0,,350
2011-12-11,41,31,20,22,19,16,92,66,40,30.61,30.53,30.44,10,10,8,10,2,13,0.00,0,,100
2011-12-12,52,37,22,32,26,18,92,67,42,30.48,30.44,30.41,10,10,9,7,2,9,0.00,2,,95
2011-12-13,49,41,33,46,42,32,100,91,82,30.50,30.41,30.31,9,4,2,8,2,12,0.13,8,Rain,176
2011-12-14,63,54,45,54,49,44,100,84,67,30.31,30.13,29.95,10,6,2,21,10,30,0.14,5,Rain-Thunderstorm,177
2011-12-15,65,51,36,59,47,27,97,81,64,30.33,30.05,29.89,10,9,2,23,13,30,0.64,7,Rain,262
2011-12-16,39,35,31,29,27,24,75,70,64,30.41,30.37,30.31,10,10,10,12,5,14,0.00,4,,346
2011-12-17,42,33,24,30,26,21,92,75,57,30.41,30.36,30.30,10,9,5,16,4,18,0.00,0,,228
2011-12-18,52,38,24,37,30,23,92,73,54,30.36,30.29,30.16,10,8,1,13,4,16,0.00,0,,197
2011-12-19,51,47,42,43,38,34,80,68,56,30.16,30.13,30.10,10,10,8,22,7,28,T,8,Rain,207
2011-12-20,60,50,40,58,48,37,96,86,76,30.13,29.92,29.73,10,6,0,12,4,16,0.28,6,Fog-Rain,124
2011-12-21,60,53,46,59,48,41,97,87,77,30.02,29.85,29.71,10,9,2,20,9,24,0.61,8,Rain,227
2011-12-22,46,41,36,43,40,36,93,85,76,30.21,30.09,29.99,10,8,2,12,3,16,0.09,7,Rain,316
2011-12-23,41,36,30,37,33,26,86,78,70,30.42,30.33,30.22,10,8,4,13,6,16,T,7,Rain,301
2011-12-24,43,35,27,32,29,25,92,77,62,30.48,30.43,30.38,10,10,8,14,4,18,0.00,0,,206
2011-12-25,55,42,28,32,29,26,92,65,38,30.40,30.34,30.26,10,10,10,16,7,23,0.00,0,,259
2011-12-26,44,35,25,36,30,24,92,75,57,30.39,30.22,29.91,10,10,8,13,4,18,0.12,1,Rain,88
2011-12-27,41,37,33,38,33,26,100,82,64,30.06,29.78,29.65,10,5,1,21,10,30,0.63,8,Rain-Snow,291
2011-12-28,43,36,28,30,28,26,92,76,60,30.16,30.09,30.00,10,10,10,13,4,16,0.00,1,,247
2011-12-29,56,45,33,39,35,29,82,67,51,29.97,29.86,29.77,10,10,10,24,12,33,0.00,1,,208
2011-12-30,58,53,48,46,42,34,86,68,50,29.88,29.74,29.65,10,10,10,26,14,38,0.00,7,,220
2011-12-31,53,47,41,39,37,35,76,65,54,30.12,30.00,29.85,10,10,10,15,7,21,0.00,4,,182